Time;durP1;ratioP1;P1;durP2;ratioP2;P2;SDS_P1;SDS_P2;PMS_P1;PMS_P2;Temp;Humidity;BMP_temperature;BMP_pressure;BME280_temperature;BME280_humidity;BME280_pressure;Samples;Min_cycle;Max_cycle;Signal;HPM_P1;HPM_P2
2021/06/18 00:00:29;;;;;;;3.47;2.60;;;20.90;77.10;;;;;;6156593;23;20065;-89
2021/06/18 00:02:55;;;;;;;2.42;2.22;;;21.00;76.80;;;;;;6156197;23;20481;-90
2021/06/18 00:05:21;;;;;;;2.10;2.00;;;20.90;76.50;;;;;;6156059;22;20004;-90
2021/06/18 00:07:48;;;;;;;4.35;2.63;;;20.90;76.70;;;;;;6182781;23;20005;-90
2021/06/18 00:10:17;;;;;;;2.17;1.98;;;20.90;76.80;;;;;;6156460;23;20005;-90
2021/06/18 00:12:43;;;;;;;2.42;2.22;;;20.90;76.90;;;;;;6156454;23;20374;-90
2021/06/18 00:15:10;;;;;;;3.67;2.83;;;20.80;77.00;;;;;;6156606;23;20048;-90
2021/06/18 00:17:36;;;;;;;2.08;1.83;;;20.80;77.00;;;;;;6156276;23;20088;-90
2021/06/18 00:20:04;;;;;;;2.08;1.98;;;20.90;77.10;;;;;;6156642;23;20001;-90
2021/06/18 00:22:29;;;;;;;3.13;2.25;;;20.90;77.10;;;;;;6156555;22;20518;-89
2021/06/18 00:24:57;;;;;;;2.70;2.50;;;21.00;76.70;;;;;;6157244;23;20001;-90
2021/06/18 00:27:23;;;;;;;2.15;1.90;;;21.00;76.60;;;;;;6156146;23;20005;-90
2021/06/18 00:29:49;;;;;;;3.20;2.28;;;21.00;76.30;;;;;;6157250;23;20012;-90
2021/06/18 00:32:15;;;;;;;2.42;2.08;;;21.00;76.40;;;;;;6182579;23;20340;-90
2021/06/18 00:34:40;;;;;;;2.33;1.90;;;21.00;76.60;;;;;;6156655;23;19997;-90
2021/06/18 00:37:06;;;;;;;2.05;1.90;;;21.00;76.70;;;;;;6156360;23;20009;-90
2021/06/18 00:39:31;;;;;;;2.53;2.30;;;21.00;76.50;;;;;;6156457;23;20036;-90
2021/06/18 00:41:57;;;;;;;3.03;1.95;;;21.10;76.40;;;;;;6156454;23;19997;-89
2021/06/18 00:44:23;;;;;;;2.15;2.03;;;21.10;76.10;;;;;;6156782;23;20423;-90
2021/06/18 00:46:49;;;;;;;2.20;2.00;;;21.10;76.30;;;;;;6156471;23;20320;-90
2021/06/18 00:49:16;;;;;;;2.42;2.20;;;21.10;76.00;;;;;;6156257;23;20001;-90
2021/06/18 00:51:42;;;;;;;2.92;2.28;;;21.00;76.50;;;;;;6156872;23;20005;-90
2021/06/18 00:54:08;;;;;;;2.22;1.95;;;21.00;76.20;;;;;;6156131;23;20444;-90
2021/06/18 00:56:34;;;;;;;2.55;2.10;;;21.00;76.20;;;;;;6156525;23;20052;-90
2021/06/18 00:59:00;;;;;;;2.92;2.20;;;21.00;76.30;;;;;;6157014;23;20005;-90
2021/06/18 01:01:26;;;;;;;2.65;2.40;;;21.00;76.10;;;;;;6156466;23;20485;-90
2021/06/18 01:03:52;;;;;;;4.75;2.28;;;21.00;76.00;;;;;;6156407;23;20008;-90
2021/06/18 01:06:26;;;;;;;2.42;2.17;;;20.90;76.00;;;;;;6156753;23;20001;-90
2021/06/18 01:09:07;;;;;;;2.30;2.10;;;20.80;76.10;;;;;;6156488;23;20046;-90
2021/06/18 01:11:38;;;;;;;2.42;2.22;;;20.70;76.30;;;;;;6156432;23;20005;-90
2021/06/18 01:14:24;;;;;;;2.65;2.00;;;20.70;76.60;;;;;;6156622;23;20005;-89
2021/06/18 01:17:13;;;;;;;2.78;2.05;;;20.70;76.80;;;;;;6156326;22;20027;-89
2021/06/18 01:19:54;;;;;;;3.10;1.92;;;20.70;76.60;;;;;;6157326;23;20009;-90
2021/06/18 01:22:23;;;;;;;3.17;2.20;;;20.60;76.80;;;;;;6156860;23;20005;-90
2021/06/18 01:25:00;;;;;;;2.35;2.15;;;20.70;76.50;;;;;;6157114;23;20024;-90
2021/06/18 01:27:32;;;;;;;2.35;1.90;;;20.60;76.70;;;;;;6156423;23;20005;-89
2021/06/18 01:30:00;;;;;;;2.42;2.22;;;20.60;76.80;;;;;;6156730;22;20005;-90
2021/06/18 01:32:37;;;;;;;2.25;2.03;;;20.60;76.70;;;;;;6156215;23;20021;-90
2021/06/18 01:35:06;;;;;;;2.53;2.22;;;20.60;76.90;;;;;;6156369;22;20029;-90
2021/06/18 01:37:32;;;;;;;1.80;1.70;;;20.60;76.80;;;;;;6156917;22;20088;-90
2021/06/18 01:40:01;;;;;;;2.10;1.90;;;20.60;76.90;;;;;;6182270;23;20001;-90
2021/06/18 01:42:28;;;;;;;2.40;1.90;;;20.60;77.10;;;;;;6182002;23;20027;-90
2021/06/18 01:44:56;;;;;;;1.90;1.80;;;20.70;77.00;;;;;;6156046;23;20002;-90
2021/06/18 01:47:22;;;;;;;2.42;2.22;;;20.70;76.90;;;;;;6155856;22;20029;-90
2021/06/18 01:49:49;;;;;;;2.80;2.47;;;20.70;76.10;;;;;;6155560;23;19997;-90
2021/06/18 01:52:16;;;;;;;2.17;1.98;;;20.70;76.20;;;;;;6155983;22;20001;-90
2021/06/18 01:54:44;;;;;;;2.15;1.92;;;20.70;76.20;;;;;;6155980;23;20012;-90
2021/06/18 01:57:11;;;;;;;1.92;1.83;;;20.70;76.00;;;;;;6156022;23;20056;-90
2021/06/18 01:59:38;;;;;;;2.25;2.05;;;20.70;76.20;;;;;;6156021;23;20005;-90
2021/06/18 02:02:06;;;;;;;3.65;2.17;;;20.70;76.50;;;;;;6155927;22;20008;-90
2021/06/18 02:04:34;;;;;;;2.20;2.00;;;20.70;76.20;;;;;;6155544;23;19997;-90
2021/06/18 02:07:01;;;;;;;2.30;2.10;;;20.60;76.30;;;;;;6155898;22;20005;-90
2021/06/18 02:09:29;;;;;;;2.17;2.03;;;20.60;76.20;;;;;;6156115;22;20001;-90
2021/06/18 02:11:55;;;;;;;3.40;2.15;;;20.60;76.30;;;;;;6155760;23;20431;-90
2021/06/18 02:14:23;;;;;;;2.13;1.92;;;20.50;76.30;;;;;;6182003;23;20002;-90
2021/06/18 02:16:52;;;;;;;3.60;2.30;;;20.50;76.20;;;;;;6155822;23;20005;-90
2021/06/18 02:19:20;;;;;;;4.43;2.42;;;20.50;76.30;;;;;;6156407;23;20092;-90
2021/06/18 02:21:48;;;;;;;2.33;2.00;;;20.40;76.60;;;;;;6156161;23;20009;-90
2021/06/18 02:24:15;;;;;;;1.95;1.85;;;20.50;76.70;;;;;;6155676;23;20432;-90
2021/06/18 02:26:42;;;;;;;1.88;1.77;;;20.50;76.70;;;;;;6156726;23;20001;-90
2021/06/18 02:29:08;;;;;;;2.20;2.00;;;20.50;76.80;;;;;;6157033;23;20001;-90
2021/06/18 02:31:37;;;;;;;2.45;2.20;;;20.50;76.80;;;;;;6183268;23;19993;-90
2021/06/18 02:34:03;;;;;;;7.00;2.22;;;20.60;76.40;;;;;;6156941;23;20405;-90
2021/06/18 02:36:29;;;;;;;2.70;2.13;;;20.60;76.60;;;;;;6157740;23;19997;-90
2021/06/18 02:38:56;;;;;;;2.53;1.88;;;20.70;76.50;;;;;;6156564;23;20009;-90
2021/06/18 02:41:22;;;;;;;2.45;2.00;;;20.60;76.50;;;;;;6157098;22;20126;-90
2021/06/18 02:43:49;;;;;;;2.45;1.73;;;20.70;76.70;;;;;;6157074;23;20032;-90
2021/06/18 02:46:34;;;;;;;2.00;1.90;;;20.80;76.50;;;;;;6157093;23;20087;-90
2021/06/18 02:49:03;;;;;;;2.03;1.90;;;20.90;76.10;;;;;;6183598;22;20005;-90
2021/06/18 02:51:45;;;;;;;1.85;1.75;;;20.90;75.90;;;;;;6156981;23;20012;-90
2021/06/18 02:54:32;;;;;;;2.67;2.25;;;21.00;75.40;;;;;;6157670;23;20417;-90
2021/06/18 02:57:07;;;;;;;2.88;2.00;;;20.90;75.10;;;;;;6156755;22;20011;-90
2021/06/18 03:00:00;;;;;;;1.83;1.73;;;20.90;75.20;;;;;;6157749;22;20297;-90
2021/06/18 03:02:33;;;;;;;2.38;2.00;;;20.90;75.20;;;;;;6156564;23;20005;-90
2021/06/18 03:05:01;;;;;;;2.25;2.05;;;20.90;75.40;;;;;;6183323;23;20023;-90
2021/06/18 03:07:29;;;;;;;2.35;2.00;;;20.80;75.40;;;;;;6157603;22;20036;-90
2021/06/18 03:10:01;;;;;;;2.50;2.30;;;20.80;75.40;;;;;;6158508;22;20008;-90
2021/06/18 03:12:28;;;;;;;2.40;2.10;;;20.80;75.50;;;;;;6157436;22;20481;-90
2021/06/18 03:15:02;;;;;;;4.15;2.42;;;20.80;75.70;;;;;;6183225;22;20012;-90
2021/06/18 03:17:29;;;;;;;2.00;1.80;;;20.80;75.30;;;;;;6157997;22;20285;-90
2021/06/18 03:19:58;;;;;;;2.78;2.30;;;20.80;75.40;;;;;;6157614;22;20001;-90
2021/06/18 03:22:25;;;;;;;2.40;2.20;;;20.80;75.30;;;;;;6157032;22;20084;-90
2021/06/18 03:24:54;;;;;;;2.40;2.20;;;20.80;75.60;;;;;;6156903;22;20001;-90
2021/06/18 03:27:22;;;;;;;1.95;1.77;;;20.90;75.80;;;;;;6156749;23;20005;-90
2021/06/18 03:29:49;;;;;;;2.30;2.10;;;20.90;75.70;;;;;;6156779;23;20052;-90
2021/06/18 03:32:17;;;;;;;1.70;1.60;;;21.00;75.20;;;;;;6156598;23;20017;-91
2021/06/18 03:34:43;;;;;;;2.75;2.00;;;21.00;75.30;;;;;;6157335;23;20343;-90
2021/06/18 03:37:10;;;;;;;3.88;1.95;;;21.00;75.10;;;;;;6157024;22;20096;-90
2021/06/18 03:39:36;;;;;;;2.97;2.30;;;21.00;75.70;;;;;;6157878;22;20408;-90
2021/06/18 03:42:02;;;;;;;2.30;2.10;;;21.00;75.20;;;;;;6156795;23;20002;-90
2021/06/18 03:44:29;;;;;;;3.10;2.50;;;20.90;75.30;;;;;;6157519;22;20005;-90
2021/06/18 03:46:57;;;;;;;2.38;2.15;;;20.90;75.30;;;;;;6157621;23;20078;-90
2021/06/18 03:49:25;;;;;;;2.13;1.92;;;20.90;75.50;;;;;;6156952;23;20015;-90
2021/06/18 03:51:52;;;;;;;2.50;2.30;;;21.00;75.70;;;;;;6156732;22;20001;-90
2021/06/18 03:54:18;;;;;;;3.53;2.28;;;21.00;75.40;;;;;;6157225;23;20357;-90
2021/06/18 03:56:47;;;;;;;3.25;2.50;;;21.00;75.50;;;;;;6156962;23;20008;-90
2021/06/18 03:59:14;;;;;;;3.75;2.53;;;21.10;75.20;;;;;;6156578;22;20017;-90
2021/06/18 04:01:42;;;;;;;2.35;2.15;;;21.10;75.20;;;;;;6156847;23;20012;-90
2021/06/18 04:04:10;;;;;;;3.20;2.80;;;21.20;75.40;;;;;;6182435;23;20426;-90
2021/06/18 04:06:37;;;;;;;2.60;2.40;;;21.20;75.10;;;;;;6157213;22;20004;-90
2021/06/18 04:09:04;;;;;;;3.40;2.40;;;21.30;75.00;;;;;;6157033;23;20427;-90
2021/06/18 04:11:30;;;;;;;3.30;2.60;;;21.40;74.70;;;;;;6156472;23;20011;-90
2021/06/18 04:13:57;;;;;;;2.50;2.30;;;21.50;74.50;;;;;;6157182;23;20328;-89
2021/06/18 04:16:23;;;;;;;2.92;2.20;;;21.60;74.30;;;;;;6156386;23;20450;-90
2021/06/18 04:18:49;;;;;;;3.45;2.53;;;21.70;74.00;;;;;;6156121;23;20084;-90
2021/06/18 04:21:18;;;;;;;3.40;2.67;;;21.80;73.50;;;;;;6156409;23;20029;-89
2021/06/18 04:23:45;;;;;;;2.50;2.30;;;21.90;73.20;;;;;;6156665;23;20324;-90
2021/06/18 04:26:10;;;;;;;2.20;2.00;;;22.00;73.10;;;;;;6182676;23;20005;-90
2021/06/18 04:28:37;;;;;;;2.30;2.10;;;22.00;72.90;;;;;;6156288;23;20428;-91
2021/06/18 04:31:04;;;;;;;3.78;2.40;;;22.10;72.90;;;;;;6156557;23;20005;-90
2021/06/18 04:33:46;;;;;;;2.72;2.53;;;22.10;72.80;;;;;;6155598;22;20021;-90
2021/06/18 04:36:13;;;;;;;2.78;2.42;;;22.30;72.50;;;;;;6155991;23;20001;-90
2021/06/18 04:39:02;;;;;;;3.28;2.53;;;22.40;72.20;;;;;;6157325;23;20443;-89
2021/06/18 04:41:27;;;;;;;2.60;2.40;;;22.60;71.50;;;;;;6155785;22;20044;-90
2021/06/18 04:43:53;;;;;;;3.88;2.25;;;22.70;71.30;;;;;;6156229;23;20009;-90
2021/06/18 04:46:19;;;;;;;2.63;2.10;;;22.80;70.80;;;;;;6156862;23;20002;-90
2021/06/18 04:48:45;;;;;;;2.72;2.30;;;22.80;70.30;;;;;;6155481;23;20074;-90
2021/06/18 04:51:11;;;;;;;2.88;2.45;;;22.80;69.90;;;;;;6155368;23;19997;-90
2021/06/18 04:53:56;;;;;;;2.30;2.10;;;22.80;70.20;;;;;;6155576;23;20035;-91
2021/06/18 04:56:22;;;;;;;2.55;2.35;;;22.90;69.20;;;;;;6156565;22;20001;-90
2021/06/18 04:58:47;;;;;;;2.95;2.63;;;22.90;70.10;;;;;;6155941;22;20055;-91
2021/06/18 05:01:13;;;;;;;9.43;2.83;;;23.00;70.00;;;;;;6182215;23;20039;-88
2021/06/18 05:03:39;;;;;;;2.30;2.10;;;23.10;69.40;;;;;;6182236;23;20004;-90
2021/06/18 05:06:05;;;;;;;2.38;2.17;;;23.10;69.40;;;;;;6156162;23;20005;-91
2021/06/18 05:08:31;;;;;;;3.65;2.85;;;23.20;69.50;;;;;;6155637;23;20093;-90
2021/06/18 05:10:57;;;;;;;2.53;2.30;;;23.30;69.20;;;;;;6155409;23;20047;-89
2021/06/18 05:13:23;;;;;;;2.50;2.30;;;23.40;69.00;;;;;;6154957;23;20021;-90
2021/06/18 05:15:49;;;;;;;2.60;2.40;;;23.50;69.00;;;;;;6155686;23;20005;-90
2021/06/18 05:18:14;;;;;;;2.30;2.13;;;23.50;68.60;;;;;;6155789;23;20016;-88
2021/06/18 05:20:41;;;;;;;3.05;2.60;;;23.60;68.30;;;;;;6156315;23;20009;-90
2021/06/18 05:23:07;;;;;;;5.00;2.90;;;23.70;68.30;;;;;;6156446;22;20005;-91
2021/06/18 05:25:33;;;;;;;2.70;2.50;;;23.70;68.10;;;;;;6156221;23;20023;-90
2021/06/18 05:27:59;;;;;;;3.05;2.47;;;23.70;68.30;;;;;;6154983;23;20005;-90
2021/06/18 05:30:24;;;;;;;2.78;2.42;;;23.80;68.10;;;;;;6155942;23;20039;-91
2021/06/18 05:32:50;;;;;;;3.45;2.60;;;23.90;67.60;;;;;;6155509;23;20040;-91
2021/06/18 05:35:16;;;;;;;8.23;2.83;;;23.90;67.60;;;;;;6156924;23;19997;-91
2021/06/18 05:37:42;;;;;;;2.25;2.05;;;24.00;67.70;;;;;;6155058;23;20005;-91
2021/06/18 05:40:09;;;;;;;3.97;2.90;;;24.00;67.70;;;;;;6155769;23;20001;-91
2021/06/18 05:42:38;;;;;;;2.67;2.47;;;24.00;67.60;;;;;;6154824;23;20047;-91
2021/06/18 05:45:05;;;;;;;7.05;3.25;;;23.90;67.40;;;;;;6156714;23;20059;-89
2021/06/18 05:47:30;;;;;;;9.02;2.67;;;23.90;67.30;;;;;;6182259;22;20001;-89
2021/06/18 05:49:56;;;;;;;2.78;2.40;;;23.80;67.30;;;;;;6155226;23;20012;-90
2021/06/18 05:52:22;;;;;;;2.80;2.50;;;23.70;67.70;;;;;;6155666;23;20006;-90
2021/06/18 05:54:48;;;;;;;6.07;2.40;;;23.60;68.10;;;;;;6155746;23;20005;-90
2021/06/18 05:57:13;;;;;;;5.15;2.60;;;23.70;68.30;;;;;;6155524;23;20017;-89
2021/06/18 05:59:39;;;;;;;2.55;2.28;;;23.70;68.20;;;;;;6156552;23;20016;-89
2021/06/18 06:02:06;;;;;;;3.85;2.78;;;23.70;68.50;;;;;;6155931;23;19997;-90
2021/06/18 06:04:31;;;;;;;3.05;2.63;;;23.80;68.60;;;;;;6156024;23;20062;-89
2021/06/18 06:06:57;;;;;;;2.78;2.58;;;23.80;68.50;;;;;;6156173;23;20036;-90
2021/06/18 06:09:23;;;;;;;3.35;2.45;;;23.80;68.50;;;;;;6156020;23;20335;-89
2021/06/18 06:11:49;;;;;;;5.38;2.40;;;23.80;68.70;;;;;;6156238;23;20028;-90
2021/06/18 06:14:18;;;;;;;3.03;2.72;;;23.90;68.50;;;;;;6156160;23;20374;-90
2021/06/18 06:16:45;;;;;;;2.53;2.28;;;24.00;68.50;;;;;;6182598;23;19993;-90
2021/06/18 06:19:11;;;;;;;2.92;2.53;;;24.10;68.30;;;;;;6156482;23;20012;-90
2021/06/18 06:21:37;;;;;;;2.92;2.72;;;24.10;68.30;;;;;;6155861;23;20001;-90
2021/06/18 06:24:03;;;;;;;3.58;2.80;;;24.10;68.40;;;;;;6157291;23;20012;-90
2021/06/18 06:26:29;;;;;;;7.10;2.92;;;24.10;68.50;;;;;;6155981;22;20008;-90
2021/06/18 06:28:55;;;;;;;3.38;2.60;;;24.30;68.30;;;;;;6157186;23;20092;-91
2021/06/18 06:31:21;;;;;;;3.95;2.75;;;24.50;67.90;;;;;;6155180;23;20020;-91
2021/06/18 06:33:46;;;;;;;2.70;2.50;;;24.60;67.20;;;;;;6156069;23;20013;-92
2021/06/18 06:36:12;;;;;;;3.08;2.58;;;24.70;67.40;;;;;;6156124;23;20004;-92
2021/06/18 06:38:38;;;;;;;5.25;3.17;;;24.90;67.20;;;;;;6155835;23;20048;-91
2021/06/18 06:41:05;;;;;;;3.25;2.78;;;25.00;66.70;;;;;;6156029;23;20005;-91
2021/06/18 06:43:30;;;;;;;2.72;2.53;;;25.10;66.40;;;;;;6156756;22;20047;-91
2021/06/18 06:46:05;;;;;;;2.63;2.42;;;25.20;66.10;;;;;;6156332;23;20002;-91
2021/06/18 06:48:31;;;;;;;3.20;2.70;;;25.20;65.70;;;;;;6154626;22;20031;-92
2021/06/18 06:50:57;;;;;;;3.08;2.78;;;25.20;65.80;;;;;;6182631;23;20076;-91
2021/06/18 06:53:22;;;;;;;3.67;2.67;;;25.20;66.00;;;;;;6182241;23;20004;-91
2021/06/18 06:55:48;;;;;;;2.78;2.53;;;25.30;66.00;;;;;;6156483;23;20005;-90
2021/06/18 06:58:14;;;;;;;3.70;2.70;;;25.40;66.00;;;;;;6156435;23;20012;-92
2021/06/18 07:00:40;;;;;;;3.47;2.70;;;25.50;65.60;;;;;;6155880;23;20001;-92
2021/06/18 07:03:06;;;;;;;2.92;2.70;;;25.60;65.00;;;;;;6155424;23;20011;-92
2021/06/18 07:05:32;;;;;;;4.28;2.60;;;25.70;65.30;;;;;;6155941;23;20028;-92
2021/06/18 07:07:57;;;;;;;2.75;2.55;;;25.80;64.70;;;;;;6156099;23;20005;-91
2021/06/18 07:10:23;;;;;;;4.03;3.00;;;25.90;64.30;;;;;;6181581;23;20024;-91
2021/06/18 07:12:49;;;;;;;2.70;2.50;;;25.90;64.10;;;;;;6181656;23;20084;-92
2021/06/18 07:15:20;;;;;;;6.07;2.92;;;25.90;64.00;;;;;;6155525;23;20001;-92
2021/06/18 07:17:46;;;;;;;4.90;2.85;;;26.00;63.90;;;;;;6181131;23;20080;-90
2021/06/18 07:20:12;;;;;;;3.50;2.42;;;26.00;64.10;;;;;;6180874;23;20009;-90
2021/06/18 07:22:38;;;;;;;3.05;2.80;;;26.00;64.30;;;;;;6153933;23;20443;-90
2021/06/18 07:25:09;;;;;;;5.25;3.17;;;26.10;64.40;;;;;;6155330;23;20046;-90
2021/06/18 07:27:36;;;;;;;3.20;2.83;;;26.20;64.30;;;;;;6154851;23;20001;-90
2021/06/18 07:30:04;;;;;;;7.35;2.90;;;26.40;64.20;;;;;;6155852;23;20008;-90
2021/06/18 07:32:33;;;;;;;5.15;3.25;;;26.60;63.90;;;;;;6179023;23;20013;-91
2021/06/18 07:35:00;;;;;;;5.30;2.80;;;26.70;63.10;;;;;;6154943;23;20005;-91
2021/06/18 07:37:25;;;;;;;3.95;3.03;;;26.70;63.00;;;;;;6131359;23;20016;-92
2021/06/18 07:39:52;;;;;;;3.70;2.78;;;26.70;62.80;;;;;;6155948;23;20013;-91
2021/06/18 07:42:19;;;;;;;7.13;3.08;;;26.60;62.90;;;;;;6153975;23;20008;-90
2021/06/18 07:44:45;;;;;;;3.90;3.22;;;26.60;63.00;;;;;;6154576;23;20013;-88
2021/06/18 07:47:11;;;;;;;3.75;3.17;;;26.40;63.10;;;;;;6154624;23;20001;-89
2021/06/18 07:49:36;;;;;;;3.38;3.08;;;26.40;63.50;;;;;;6155409;22;20001;-89
2021/06/18 07:52:02;;;;;;;4.50;3.22;;;26.30;63.50;;;;;;6154622;23;20005;-91
2021/06/18 07:54:29;;;;;;;3.42;2.90;;;26.30;63.50;;;;;;6154652;23;20454;-89
2021/06/18 07:56:55;;;;;;;4.25;3.10;;;26.40;63.40;;;;;;6154574;23;20391;-89
2021/06/18 07:59:21;;;;;;;3.10;2.80;;;26.30;63.40;;;;;;6154361;23;20009;-89
2021/06/18 08:01:47;;;;;;;2.92;2.63;;;26.40;63.40;;;;;;6154568;23;20028;-88
2021/06/18 08:04:13;;;;;;;3.10;2.80;;;26.40;63.50;;;;;;6182648;22;20074;-88
2021/06/18 08:06:39;;;;;;;3.30;2.97;;;26.40;63.60;;;;;;6155383;23;20358;-88
2021/06/18 08:09:05;;;;;;;4.50;2.92;;;26.40;63.50;;;;;;6154181;23;20036;-88
2021/06/18 08:11:31;;;;;;;3.92;2.53;;;26.40;63.60;;;;;;6181387;23;20282;-89
2021/06/18 08:13:57;;;;;;;3.85;3.45;;;26.50;63.50;;;;;;6155553;22;20013;-89
2021/06/18 08:16:23;;;;;;;3.30;3.00;;;26.60;63.00;;;;;;6180978;23;20070;-90
2021/06/18 08:18:49;;;;;;;2.75;2.55;;;26.80;62.80;;;;;;6180236;23;20096;-91
2021/06/18 08:21:15;;;;;;;2.95;2.65;;;26.90;62.40;;;;;;6155663;23;19997;-90
2021/06/18 08:23:41;;;;;;;3.60;2.50;;;27.00;62.30;;;;;;6155615;23;20435;-89
2021/06/18 08:26:10;;;;;;;4.18;2.95;;;27.10;61.80;;;;;;6154000;23;20001;-91
2021/06/18 08:28:36;;;;;;;3.55;2.50;;;27.00;61.60;;;;;;6155078;23;20055;-90
2021/06/18 08:31:04;;;;;;;3.83;2.60;;;27.00;62.10;;;;;;6155886;23;20008;-91
2021/06/18 08:33:33;;;;;;;3.10;2.90;;;27.00;62.20;;;;;;6155079;23;20320;-91
2021/06/18 08:36:01;;;;;;;5.35;4.03;;;27.00;62.40;;;;;;6155176;22;20058;-91
2021/06/18 08:38:27;;;;;;;4.75;3.15;;;27.00;62.60;;;;;;6156767;23;20009;-90
2021/06/18 08:40:53;;;;;;;5.20;3.10;;;27.10;62.80;;;;;;6155986;23;20017;-91
2021/06/18 08:43:23;;;;;;;3.20;2.90;;;27.20;62.60;;;;;;6155529;23;20105;-91
2021/06/18 08:45:49;;;;;;;2.75;2.50;;;27.30;62.50;;;;;;6156127;22;20297;-93
2021/06/18 08:49:17;;;;;;;2.15;2.05;;;27.50;62.30;;;;;;6155639;23;20008;-91
2021/06/18 08:56:09;;;;;;;4.35;3.20;;;27.80;60.90;;;;;;6181747;23;20046;-92
2021/06/18 08:58:36;;;;;;;4.15;2.65;;;27.80;60.80;;;;;;6155526;22;20005;-92
2021/06/18 09:01:02;;;;;;;3.28;2.80;;;27.70;61.10;;;;;;6181723;23;20009;-91
2021/06/18 09:03:41;;;;;;;3.78;2.60;;;27.80;61.00;;;;;;6156128;22;20001;-92
2021/06/18 09:09:34;;;;;;;2.80;2.50;;;27.90;60.00;;;;;;6185697;22;20062;-90
2021/06/18 09:12:05;;;;;;;3.70;2.50;;;27.90;59.90;;;;;;6156365;23;20001;-91
2021/06/18 09:14:38;;;;;;;3.58;2.47;;;27.90;59.50;;;;;;6155907;22;20005;-92
2021/06/18 09:17:11;;;;;;;3.10;2.80;;;27.90;59.20;;;;;;6155452;22;20005;-89
2021/06/18 09:19:46;;;;;;;2.83;2.63;;;27.80;59.00;;;;;;6185586;22;20001;-90
2021/06/18 09:22:20;;;;;;;2.70;2.45;;;27.70;59.40;;;;;;6155233;22;20424;-90
2021/06/18 09:24:48;;;;;;;3.58;3.28;;;27.70;59.60;;;;;;6155783;22;20028;-89
2021/06/18 09:27:14;;;;;;;3.78;3.20;;;27.60;59.80;;;;;;6158396;22;20001;-90
2021/06/18 09:29:41;;;;;;;2.70;2.50;;;27.60;60.00;;;;;;6156845;23;20016;-90
2021/06/18 09:32:13;;;;;;;2.75;2.50;;;27.60;60.20;;;;;;6155120;22;20077;-89
2021/06/18 09:35:01;;;;;;;3.03;2.58;;;27.60;60.50;;;;;;6155250;23;20001;-89
2021/06/18 09:37:39;;;;;;;3.78;3.13;;;27.70;60.60;;;;;;6153398;22;20395;-89
2021/06/18 09:40:08;;;;;;;4.43;2.88;;;27.90;60.30;;;;;;6157177;23;20012;-91
2021/06/18 09:43:21;;;;;;;2.90;2.30;;;28.00;60.20;;;;;;6185006;22;20001;-93
2021/06/18 09:45:47;;;;;;;3.80;2.47;;;28.20;60.00;;;;;;6155004;23;20087;-91
2021/06/18 09:48:21;;;;;;;2.85;2.65;;;28.20;59.40;;;;;;6156682;23;20095;-92
2021/06/18 09:50:49;;;;;;;7.28;3.08;;;28.20;59.40;;;;;;6162013;22;20005;-92
2021/06/18 09:53:33;;;;;;;2.67;2.47;;;28.20;59.30;;;;;;6155059;23;20325;-92
2021/06/18 09:56:05;;;;;;;3.90;2.80;;;28.30;59.30;;;;;;6154410;23;20058;-94
2021/06/18 09:58:49;;;;;;;3.30;3.00;;;28.30;59.10;;;;;;6155755;23;20078;-94
2021/06/18 10:01:27;;;;;;;2.63;2.42;;;28.30;58.80;;;;;;6162036;23;20005;-92
2021/06/18 10:04:02;;;;;;;3.35;2.83;;;28.30;59.10;;;;;;6155362;23;20005;-91
2021/06/18 10:06:30;;;;;;;2.80;2.53;;;28.20;59.20;;;;;;6181899;22;20081;-91
2021/06/18 10:09:05;;;;;;;3.10;2.80;;;28.30;59.30;;;;;;6183873;23;20005;-90
2021/06/18 10:11:34;;;;;;;4.43;2.70;;;28.40;59.30;;;;;;6156972;22;20001;-92
2021/06/18 10:14:22;;;;;;;4.10;2.58;;;28.50;59.30;;;;;;6157162;22;20012;-93
2021/06/18 10:21:21;;;;;;;2.92;2.70;;;28.70;59.20;;;;;;6190724;23;20024;-94
2021/06/18 10:24:04;;;;;;;9.23;2.92;;;28.80;58.80;;;;;;6123338;23;20093;-93
2021/06/18 10:26:43;;;;;;;3.28;2.97;;;28.70;58.10;;;;;;6161734;23;20065;-90
2021/06/18 10:29:39;;;;;;;2.85;2.65;;;28.60;58.40;;;;;;6157320;22;20005;-92
2021/06/18 10:32:40;;;;;;;3.63;2.40;;;28.70;57.70;;;;;;6162366;23;20002;-91
2021/06/18 10:35:29;;;;;;;3.28;2.97;;;28.60;57.80;;;;;;6160651;23;20489;-92
2021/06/18 10:37:57;;;;;;;2.67;2.47;;;28.60;58.10;;;;;;6157019;23;20012;-91
2021/06/18 10:40:54;;;;;;;3.28;2.97;;;28.50;58.00;;;;;;6161552;23;20027;-92
2021/06/18 10:43:57;;;;;;;;;;;;;;;;;;;;;
2021/06/18 10:46:49;;;;;;;;;;;28.40;58.50;;;;;;6177171;23;20016;-92
2021/06/18 10:49:46;;;;;;;4.47;2.78;;;28.30;58.60;;;;;;6163360;22;19901;-93
2021/06/18 10:52:25;;;;;;;3.80;2.97;;;28.30;58.70;;;;;;6190595;23;20001;-93
2021/06/18 10:55:24;;;;;;;5.18;2.78;;;28.30;59.00;;;;;;6192175;22;20054;-93
2021/06/18 10:57:54;;;;;;;3.17;2.63;;;28.20;59.40;;;;;;6189394;23;20001;-94
2021/06/18 11:00:23;;;;;;;4.32;2.50;;;28.30;59.70;;;;;;6189789;23;20029;-92
2021/06/18 11:02:50;;;;;;;3.15;2.78;;;28.30;59.70;;;;;;6162719;23;20001;-94
2021/06/18 11:05:28;;;;;;;3.05;2.80;;;28.40;59.60;;;;;;6182243;22;20046;-93
2021/06/18 11:08:26;;;;;;;2.85;2.58;;;28.40;59.60;;;;;;6156152;22;20020;-93
2021/06/18 11:10:57;;;;;;;2.70;2.50;;;28.50;59.30;;;;;;6158098;22;20028;-94
2021/06/18 11:13:29;;;;;;;2.67;2.40;;;28.40;59.60;;;;;;6183463;22;20005;-92
2021/06/18 11:15:58;;;;;;;2.58;2.33;;;28.40;59.90;;;;;;6158416;23;20017;-95
2021/06/18 11:19:11;;;;;;;2.80;2.60;;;28.50;60.10;;;;;;6157075;23;20448;-95
2021/06/18 11:21:37;;;;;;;2.60;2.40;;;28.50;60.00;;;;;;6154720;23;20092;-92
2021/06/18 11:24:04;;;;;;;5.95;2.75;;;28.50;60.00;;;;;;6154384;23;20388;-92
2021/06/18 11:26:43;;;;;;;2.75;2.55;;;28.50;59.70;;;;;;6156980;23;20061;-94
2021/06/18 11:29:27;;;;;;;3.13;2.83;;;28.50;59.20;;;;;;6159076;23;20428;-95
2021/06/18 11:32:02;;;;;;;2.83;2.28;;;28.60;59.40;;;;;;6165703;22;19986;-96
2021/06/18 11:34:38;;;;;;;4.63;2.63;;;28.50;59.30;;;;;;6125372;23;20018;-96
2021/06/18 11:37:32;;;;;;;2.40;2.20;;;28.50;59.20;;;;;;6123094;23;20010;-94
2021/06/18 11:40:07;;;;;;;3.42;2.47;;;28.40;59.20;;;;;;6123398;23;20010;-92
2021/06/18 11:42:38;;;;;;;2.85;2.58;;;28.20;59.50;;;;;;6122544;23;20053;-93
2021/06/18 11:45:05;;;;;;;2.40;2.20;;;28.20;59.90;;;;;;6121776;23;20436;-93
2021/06/18 11:48:35;;;;;;;1.92;1.80;;;28.30;60.10;;;;;;6129092;23;20013;-96
2021/06/18 11:51:03;;;;;;;3.83;2.50;;;28.40;60.00;;;;;;6134111;23;20084;-95
2021/06/18 11:54:18;;;;;;;2.63;2.40;;;28.60;59.80;;;;;;6105080;23;20020;-95
2021/06/18 11:57:22;;;;;;;2.70;2.42;;;28.70;59.20;;;;;;6128476;23;20010;-96
2021/06/18 12:00:23;;;;;;;3.60;2.50;;;28.80;58.90;;;;;;6121251;23;20014;-94
2021/06/18 12:02:52;;;;;;;3.50;2.67;;;28.90;58.70;;;;;;6121738;23;20093;-89
2021/06/18 12:05:21;;;;;;;2.20;2.10;;;29.00;58.90;;;;;;6097747;23;20430;-92
2021/06/18 12:07:51;;;;;;;2.70;2.50;;;29.00;58.50;;;;;;6121485;23;20357;-92
2021/06/18 12:10:27;;;;;;;2.53;2.33;;;29.10;57.90;;;;;;6120985;23;20002;-90
2021/06/18 12:13:00;;;;;;;2.67;2.47;;;29.20;58.10;;;;;;6098318;23;20006;-93
2021/06/18 12:15:28;;;;;;;;;;;29.20;57.80;;;;;;6121682;23;20452;-90
2021/06/18 12:18:01;;;;;;;2.92;2.40;;;29.20;58.00;;;;;;6121788;23;19909;-90
2021/06/18 12:20:37;;;;;;;2.10;1.90;;;29.40;58.70;;;;;;6122218;23;20014;-90
2021/06/18 12:23:11;;;;;;;2.60;2.38;;;29.70;59.00;;;;;;6121568;23;20010;-91
2021/06/18 12:25:37;;;;;;;3.05;2.75;;;30.00;57.90;;;;;;6120948;23;20017;-91
2021/06/18 12:28:06;;;;;;;2.80;2.50;;;30.10;57.50;;;;;;6122440;23;20030;-93
2021/06/18 12:30:38;;;;;;;2.80;2.60;;;30.30;57.50;;;;;;6121693;23;20113;-93
2021/06/18 12:33:06;;;;;;;2.67;2.47;;;30.50;57.30;;;;;;6133830;23;20021;-92
2021/06/18 12:35:42;;;;;;;2.88;2.58;;;30.80;57.40;;;;;;6150337;23;20089;-93
2021/06/18 12:38:15;;;;;;;3.33;3.03;;;31.10;56.20;;;;;;6153477;23;20017;-92
2021/06/18 12:40:47;;;;;;;2.63;2.43;;;31.50;56.60;;;;;;6118648;23;20013;-92
2021/06/18 12:43:15;;;;;;;2.55;2.35;;;31.90;56.20;;;;;;6148931;23;20006;-92
2021/06/18 12:45:49;;;;;;;4.25;2.42;;;32.40;55.80;;;;;;6148826;23;20005;-92
2021/06/18 12:48:38;;;;;;;2.60;2.40;;;32.80;55.10;;;;;;6148223;23;20060;-92
2021/06/18 12:51:05;;;;;;;3.05;2.40;;;33.20;54.30;;;;;;6151566;23;20006;-93
2021/06/18 12:53:40;;;;;;;3.40;2.72;;;33.50;53.60;;;;;;6151111;23;20333;-92
2021/06/18 12:56:21;;;;;;;3.22;3.00;;;33.70;52.60;;;;;;6149956;23;20084;-92
2021/06/18 12:58:53;;;;;;;2.33;2.17;;;34.00;51.50;;;;;;6151420;23;20500;-88
2021/06/18 13:01:25;;;;;;;2.70;2.33;;;34.10;51.90;;;;;;6151115;23;20029;-92
2021/06/18 13:04:08;;;;;;;2.22;2.03;;;34.50;51.50;;;;;;6150279;23;20456;-92
2021/06/18 13:06:50;;;;;;;2.22;2.03;;;34.60;50.60;;;;;;6151368;23;20017;-92
2021/06/18 13:09:31;;;;;;;2.08;1.88;;;34.40;49.80;;;;;;6148821;22;20002;-91
2021/06/18 13:11:56;;;;;;;3.33;2.28;;;33.90;49.80;;;;;;6148638;23;20006;-91
2021/06/18 13:14:28;;;;;;;2.78;2.58;;;33.40;50.00;;;;;;6151829;23;20365;-93
2021/06/18 13:16:56;;;;;;;2.30;2.10;;;33.00;50.70;;;;;;6148980;23;20413;-89
2021/06/18 13:19:50;;;;;;;3.35;2.10;;;32.80;51.20;;;;;;6149222;23;20014;-93